Metar Aviation Weather Data KPWM

37°F Temp
12°F Dewpoint
% Humidity
Temperature
21 MPH
34 KM/H
18 KTS
300°
West North
West

Wind Speed
Partly Cloudy
Conditions
Pressure 1017.32 (hPa) - 30.04 (in)
Visibility 10.0 (mi) - 16 (km)

Current Conditions
KPWM
Metar :KPWM 191851Z 30018G30KT 10SM FEW060 03/M11 A3004 RMK AO2 PK WND 29039/1813 SLP174 T00281111
Wed 19th February 14:51 pm

  Metar Aviation API Data Provided by https://www.checkwx.com/ PHP scripts by weather34.com ©2020